Time;durP1;ratioP1;P1;durP2;ratioP2;P2;SDS_P1;SDS_P2;PMS_P1;PMS_P2;Temp;Humidity;BMP_temperature;BMP_pressure;BME280_temperature;BME280_humidity;BME280_pressure;Samples;Min_cycle;Max_cycle;Signal;HPM_P1;HPM_P2
2021/08/18 00:00:16;;;;;;;7.30;5.30;;;24.50;52.00;;;;;;5002406;28;20058;-45
2021/08/18 00:02:42;;;;;;;7.72;5.25;;;24.50;52.10;;;;;;5004709;28;20029;-45
2021/08/18 00:05:11;;;;;;;8.93;5.15;;;24.40;52.00;;;;;;5004352;28;20044;-49
2021/08/18 00:07:36;;;;;;;7.45;5.68;;;24.40;52.10;;;;;;5001884;28;20037;-45
2021/08/18 00:10:05;;;;;;;8.70;5.97;;;24.50;52.10;;;;;;5003417;28;20027;-52
2021/08/18 00:12:31;;;;;;;7.82;5.70;;;24.50;52.20;;;;;;5002702;28;20031;-46
2021/08/18 00:14:57;;;;;;;10.20;6.13;;;24.50;52.20;;;;;;5004735;28;20464;-45
2021/08/18 00:17:22;;;;;;;8.13;5.53;;;24.50;52.20;;;;;;5002861;28;20116;-45
2021/08/18 00:19:48;;;;;;;7.85;5.88;;;24.50;52.30;;;;;;5002458;28;20391;-46
2021/08/18 00:22:14;;;;;;;9.07;5.78;;;24.50;52.10;;;;;;5003703;28;20025;-45
2021/08/18 00:24:40;;;;;;;10.57;5.45;;;24.40;52.10;;;;;;5003174;28;20031;-45
2021/08/18 00:27:05;;;;;;;8.57;6.03;;;24.50;52.10;;;;;;5002262;28;20029;-46
2021/08/18 00:29:31;;;;;;;8.82;6.00;;;24.50;52.20;;;;;;5001922;28;20022;-45
2021/08/18 00:31:56;;;;;;;8.43;6.25;;;24.50;52.30;;;;;;5004328;28;20411;-45
2021/08/18 00:34:22;;;;;;;9.48;6.63;;;24.50;52.20;;;;;;5002541;28;20443;-45
2021/08/18 00:36:48;;;;;;;8.65;5.95;;;24.50;52.30;;;;;;5002730;28;20064;-46
2021/08/18 00:39:14;;;;;;;7.72;5.78;;;24.50;52.40;;;;;;5003411;28;20207;-45
2021/08/18 00:41:40;;;;;;;6.80;5.13;;;24.50;52.50;;;;;;5011386;28;20050;-45
2021/08/18 00:44:06;;;;;;;9.80;6.35;;;24.50;52.50;;;;;;5003412;28;20026;-45
2021/08/18 00:46:39;;;;;;;7.60;5.97;;;24.50;52.60;;;;;;5003484;28;20049;-44
2021/08/18 00:49:04;;;;;;;9.80;5.40;;;24.50;52.60;;;;;;5001560;28;20542;-47
2021/08/18 00:51:30;;;;;;;9.40;6.57;;;24.50;52.60;;;;;;5003171;28;20022;-45
2021/08/18 00:53:56;;;;;;;8.45;5.88;;;24.50;52.60;;;;;;5003854;28;20034;-46
2021/08/18 00:56:21;;;;;;;10.48;6.20;;;24.50;52.60;;;;;;5001071;28;20022;-45
2021/08/18 00:58:47;;;;;;;8.90;6.50;;;24.50;52.60;;;;;;5002770;28;20053;-46
2021/08/18 01:01:12;;;;;;;7.88;5.72;;;24.50;52.60;;;;;;5002553;28;20058;-45
2021/08/18 01:03:38;;;;;;;8.68;6.05;;;24.50;52.70;;;;;;5001955;28;20481;-45
2021/08/18 01:06:04;;;;;;;8.40;5.93;;;24.50;52.70;;;;;;5023980;28;20026;-50
2021/08/18 01:08:29;;;;;;;7.43;5.82;;;24.50;52.80;;;;;;5002569;28;20101;-45
2021/08/18 01:10:58;;;;;;;8.35;6.22;;;24.50;52.70;;;;;;5003604;28;20396;-46
2021/08/18 01:13:23;;;;;;;8.35;5.50;;;24.50;52.80;;;;;;5000849;28;20034;-46
2021/08/18 01:15:49;;;;;;;9.00;6.03;;;24.50;52.80;;;;;;5002884;28;20026;-45
2021/08/18 01:18:15;;;;;;;9.05;6.22;;;24.50;52.80;;;;;;5002414;28;20026;-45
2021/08/18 01:20:43;;;;;;;7.20;5.35;;;24.50;52.70;;;;;;5001494;28;20034;-45
2021/08/18 01:23:12;;;;;;;7.63;6.10;;;24.50;52.80;;;;;;5002075;28;20062;-45
2021/08/18 01:25:38;;;;;;;9.90;6.03;;;24.50;52.80;;;;;;5005682;28;20025;-46
2021/08/18 01:28:06;;;;;;;8.57;6.35;;;24.40;52.70;;;;;;5000838;28;20065;-52
2021/08/18 01:30:34;;;;;;;8.25;6.10;;;24.40;52.70;;;;;;5001913;28;20029;-45
2021/08/18 01:33:04;;;;;;;8.80;6.45;;;24.40;52.80;;;;;;5003373;28;20029;-45
2021/08/18 01:35:35;;;;;;;10.02;6.65;;;24.40;52.80;;;;;;5001823;28;20027;-45
2021/08/18 01:38:04;;;;;;;8.00;5.90;;;24.40;52.70;;;;;;5001098;28;20027;-51
2021/08/18 01:40:30;;;;;;;9.05;6.75;;;24.40;52.70;;;;;;5000704;28;20507;-48
2021/08/18 01:42:55;;;;;;;8.98;6.32;;;24.50;52.80;;;;;;5002731;28;20476;-46
2021/08/18 01:45:25;;;;;;;10.98;6.38;;;24.40;52.70;;;;;;5000367;28;20093;-45
2021/08/18 01:47:52;;;;;;;9.05;6.57;;;24.40;52.70;;;;;;5001777;28;20383;-45
2021/08/18 01:50:19;;;;;;;8.18;6.18;;;24.40;52.70;;;;;;5001997;28;20030;-45
2021/08/18 01:52:47;;;;;;;8.32;5.22;;;24.50;52.80;;;;;;5002111;28;20088;-45
2021/08/18 01:55:13;;;;;;;9.18;6.50;;;24.50;52.80;;;;;;5001875;28;20106;-45
2021/08/18 01:57:40;;;;;;;8.20;6.00;;;24.40;52.70;;;;;;5000515;28;20113;-48
2021/08/18 02:00:08;;;;;;;10.13;6.78;;;24.40;52.70;;;;;;5001643;28;20109;-47
2021/08/18 02:02:35;;;;;;;12.15;6.60;;;24.40;52.70;;;;;;5002327;28;20027;-45
2021/08/18 02:05:01;;;;;;;8.88;6.45;;;24.40;52.70;;;;;;5002023;28;20101;-48
2021/08/18 02:07:26;;;;;;;10.65;7.00;;;24.40;52.70;;;;;;5000598;28;20117;-46
2021/08/18 02:09:52;;;;;;;8.63;6.28;;;24.40;52.60;;;;;;5001326;28;20042;-45
2021/08/18 02:12:18;;;;;;;9.63;6.55;;;24.40;52.60;;;;;;4998552;28;20029;-45
2021/08/18 02:14:44;;;;;;;10.30;6.30;;;24.40;52.70;;;;;;5001612;28;20053;-46
2021/08/18 02:17:09;;;;;;;9.25;6.75;;;24.40;52.50;;;;;;5000694;28;20083;-48
2021/08/18 02:19:35;;;;;;;9.80;6.47;;;24.40;52.50;;;;;;5001016;28;20030;-45
2021/08/18 02:22:00;;;;;;;8.55;5.93;;;24.40;53.10;;;;;;5002362;28;20022;-46
2021/08/18 02:24:26;;;;;;;9.20;6.07;;;24.40;52.40;;;;;;4999980;28;20026;-46
2021/08/18 02:26:52;;;;;;;9.10;6.38;;;24.40;52.40;;;;;;5001451;28;20034;-45
2021/08/18 02:29:18;;;;;;;9.05;6.80;;;24.40;52.30;;;;;;5001068;28;20101;-45
2021/08/18 02:31:43;;;;;;;8.05;6.03;;;24.40;52.30;;;;;;5000362;28;20456;-45
2021/08/18 02:34:12;;;;;;;10.25;6.70;;;24.40;52.30;;;;;;5000738;28;20102;-45
2021/08/18 02:36:38;;;;;;;9.60;6.25;;;24.40;52.30;;;;;;5001947;28;20467;-45
2021/08/18 02:39:04;;;;;;;10.95;7.10;;;24.40;52.40;;;;;;5000080;28;20050;-52
2021/08/18 02:41:29;;;;;;;9.80;6.75;;;24.40;52.40;;;;;;5001192;28;20046;-47
2021/08/18 02:43:55;;;;;;;9.88;6.80;;;24.40;52.30;;;;;;5001611;28;20106;-45
2021/08/18 02:46:21;;;;;;;8.50;6.07;;;24.40;52.30;;;;;;4998039;28;20030;-45
2021/08/18 02:48:46;;;;;;;9.38;6.65;;;24.40;52.30;;;;;;5001481;28;20476;-47
2021/08/18 02:51:12;;;;;;;10.73;6.93;;;24.40;52.30;;;;;;5000605;28;20026;-45
2021/08/18 02:53:37;;;;;;;8.88;6.40;;;24.40;52.30;;;;;;5000843;28;20372;-45
2021/08/18 02:56:03;;;;;;;9.25;6.82;;;24.40;52.30;;;;;;4999785;28;20353;-49
2021/08/18 02:58:30;;;;;;;7.88;6.00;;;24.40;52.20;;;;;;5000672;28;20033;-50
2021/08/18 03:00:55;;;;;;;10.05;6.95;;;24.30;52.20;;;;;;5001401;28;20038;-45
2021/08/18 03:03:21;;;;;;;8.23;6.70;;;24.40;52.20;;;;;;4999115;28;20223;-44
2021/08/18 03:05:47;;;;;;;9.40;6.65;;;24.40;52.30;;;;;;5001351;28;20029;-47
2021/08/18 03:08:12;;;;;;;8.70;5.97;;;24.40;52.20;;;;;;5000664;28;20026;-44
2021/08/18 03:10:38;;;;;;;10.20;7.07;;;24.40;52.20;;;;;;5000485;28;20018;-45
2021/08/18 03:13:03;;;;;;;8.68;6.70;;;24.40;52.30;;;;;;4999859;28;20054;-52
2021/08/18 03:15:29;;;;;;;8.35;6.70;;;24.30;52.20;;;;;;5000750;28;20059;-45
2021/08/18 03:17:55;;;;;;;9.88;6.70;;;24.30;52.20;;;;;;5001526;28;20101;-48
2021/08/18 03:20:21;;;;;;;10.88;6.68;;;24.30;52.20;;;;;;4997444;28;20037;-45
2021/08/18 03:22:46;;;;;;;9.30;6.28;;;24.30;52.20;;;;;;5001460;28;20033;-48
2021/08/18 03:25:12;;;;;;;8.75;6.43;;;24.30;52.10;;;;;;4999877;28;20057;-47
2021/08/18 03:27:38;;;;;;;13.68;6.97;;;24.40;52.20;;;;;;5003097;28;20025;-47
2021/08/18 03:30:05;;;;;;;10.30;6.35;;;24.40;52.20;;;;;;5004921;28;20034;-52
2021/08/18 03:32:31;;;;;;;9.32;6.68;;;24.30;52.10;;;;;;5004601;28;20026;-49
2021/08/18 03:34:56;;;;;;;10.23;6.65;;;24.30;52.20;;;;;;5003838;28;20037;-49
2021/08/18 03:37:22;;;;;;;10.75;6.55;;;24.30;52.10;;;;;;5005111;28;20025;-45
2021/08/18 03:39:48;;;;;;;8.75;6.18;;;24.40;52.20;;;;;;5003943;28;20428;-45
2021/08/18 03:42:13;;;;;;;9.73;6.30;;;24.30;52.10;;;;;;5003600;28;20542;-47
2021/08/18 03:44:39;;;;;;;8.63;6.30;;;24.30;52.00;;;;;;5005097;28;20029;-45
2021/08/18 03:47:05;;;;;;;8.57;6.30;;;24.30;52.00;;;;;;5003025;28;20030;-51
2021/08/18 03:49:30;;;;;;;9.02;6.35;;;24.30;52.20;;;;;;5004277;28;20026;-45
2021/08/18 03:51:56;;;;;;;7.78;5.97;;;24.30;52.10;;;;;;5004793;28;20084;-48
2021/08/18 03:54:22;;;;;;;8.65;5.72;;;24.30;52.10;;;;;;5005447;28;20055;-45
2021/08/18 03:56:47;;;;;;;9.20;6.28;;;24.30;52.10;;;;;;5015101;28;20110;-49
2021/08/18 03:59:13;;;;;;;8.30;5.75;;;24.30;52.10;;;;;;5014162;28;20141;-45
2021/08/18 04:01:39;;;;;;;8.75;6.53;;;24.30;52.00;;;;;;5015216;28;20084;-45
2021/08/18 04:04:05;;;;;;;8.95;6.22;;;24.30;52.10;;;;;;5014704;28;20025;-50
2021/08/18 04:06:31;;;;;;;8.35;6.00;;;24.30;52.80;;;;;;5015004;28;20095;-45
2021/08/18 04:08:58;;;;;;;8.50;5.97;;;24.30;52.10;;;;;;5013262;28;20093;-45
2021/08/18 04:11:24;;;;;;;10.18;6.00;;;24.30;52.10;;;;;;4994764;28;20626;-45
2021/08/18 04:13:50;;;;;;;8.82;6.60;;;24.30;52.00;;;;;;4995617;28;20428;-47
2021/08/18 04:16:15;;;;;;;7.78;6.10;;;24.30;52.10;;;;;;4994528;28;20152;-48
2021/08/18 04:18:41;;;;;;;8.88;6.72;;;24.30;52.10;;;;;;4995818;28;20062;-46
2021/08/18 04:21:07;;;;;;;9.73;6.38;;;24.30;52.00;;;;;;5000167;28;20030;-53
2021/08/18 04:23:32;;;;;;;8.70;6.13;;;24.30;52.10;;;;;;5014881;28;20072;-45
2021/08/18 04:25:58;;;;;;;7.47;5.95;;;24.30;52.10;;;;;;5014813;28;20094;-45
2021/08/18 04:28:24;;;;;;;8.48;5.65;;;24.30;52.00;;;;;;5014043;28;20079;-44
2021/08/18 04:30:50;;;;;;;7.70;5.60;;;24.30;52.10;;;;;;5014264;28;20459;-44
2021/08/18 04:33:15;;;;;;;7.35;5.70;;;24.30;52.00;;;;;;5014052;28;20033;-45
2021/08/18 04:35:41;;;;;;;6.75;4.80;;;24.30;52.10;;;;;;5014541;28;20026;-46
2021/08/18 04:38:07;;;;;;;6.90;5.22;;;24.30;52.00;;;;;;5013451;28;20030;-53
2021/08/18 04:40:32;;;;;;;8.32;5.60;;;24.30;52.10;;;;;;5014135;28;20060;-45
2021/08/18 04:42:58;;;;;;;6.85;5.70;;;24.30;52.00;;;;;;5014559;28;20034;-45
2021/08/18 04:45:24;;;;;;;8.85;5.30;;;24.30;52.10;;;;;;5010205;28;20572;-47
2021/08/18 04:47:49;;;;;;;7.50;5.20;;;24.30;52.10;;;;;;5003926;28;20018;-45
2021/08/18 04:50:17;;;;;;;6.85;5.32;;;24.30;52.10;;;;;;5004128;28;20030;-45
2021/08/18 04:52:42;;;;;;;7.70;5.55;;;24.30;52.10;;;;;;5002261;28;20022;-45
2021/08/18 04:55:09;;;;;;;6.18;4.95;;;24.30;52.10;;;;;;5001229;28;20080;-49
2021/08/18 04:57:34;;;;;;;6.43;4.85;;;24.30;52.10;;;;;;5003778;28;20036;-47
2021/08/18 05:00:00;;;;;;;7.65;4.95;;;24.30;52.20;;;;;;5002346;28;20029;-45
2021/08/18 05:02:26;;;;;;;7.57;5.22;;;24.30;52.20;;;;;;5001973;28;20194;-46
2021/08/18 05:04:52;;;;;;;6.55;4.90;;;24.30;52.10;;;;;;5002753;28;20480;-45
2021/08/18 05:07:17;;;;;;;7.20;5.10;;;24.30;52.10;;;;;;5003094;28;20387;-45
2021/08/18 05:09:43;;;;;;;7.38;5.50;;;24.30;52.20;;;;;;5002997;28;20029;-45
2021/08/18 05:12:08;;;;;;;6.70;4.68;;;24.30;52.10;;;;;;5001905;28;20027;-46
2021/08/18 05:14:34;;;;;;;7.88;4.95;;;24.30;52.80;;;;;;5001982;28;20490;-47
2021/08/18 05:17:00;;;;;;;6.03;4.35;;;24.30;52.20;;;;;;5000119;28;20076;-45
2021/08/18 05:19:25;;;;;;;6.40;4.35;;;24.30;52.20;;;;;;4992512;28;20026;-45
2021/08/18 05:21:51;;;;;;;8.07;5.35;;;24.30;52.20;;;;;;4998581;28;20037;-45
2021/08/18 05:24:17;;;;;;;10.75;5.00;;;24.30;52.20;;;;;;5006654;28;20029;-44
2021/08/18 05:26:42;;;;;;;6.70;4.90;;;24.40;52.50;;;;;;5013589;28;20030;-45
2021/08/18 05:29:08;;;;;;;7.25;4.93;;;24.30;52.00;;;;;;5005799;28;20467;-52
2021/08/18 05:31:33;;;;;;;7.63;4.15;;;24.30;51.50;;;;;;5011297;28;20468;-45
2021/08/18 05:33:59;;;;;;;6.47;4.32;;;24.20;51.20;;;;;;5013211;28;20057;-45
2021/08/18 05:36:25;;;;;;;7.75;4.03;;;23.40;52.00;;;;;;5013678;28;20268;-45
2021/08/18 05:38:50;;;;;;;5.15;3.72;;;22.60;54.20;;;;;;5013665;28;20037;-45
2021/08/18 05:41:16;;;;;;;5.53;3.97;;;22.20;55.40;;;;;;5011894;28;20126;-45
2021/08/18 05:43:42;;;;;;;8.30;4.63;;;22.20;55.50;;;;;;5013573;28;20129;-45
2021/08/18 05:46:07;;;;;;;4.95;3.85;;;22.00;56.70;;;;;;5012890;28;20029;-51
2021/08/18 05:48:33;;;;;;;7.97;4.68;;;21.90;56.50;;;;;;5011827;28;20029;-45
2021/08/18 05:50:58;;;;;;;7.07;3.90;;;21.80;57.30;;;;;;5013844;28;20109;-45
2021/08/18 05:53:24;;;;;;;6.47;3.92;;;21.70;57.60;;;;;;5013251;28;20116;-45
2021/08/18 05:55:50;;;;;;;6.47;4.03;;;21.60;58.20;;;;;;5013232;28;20026;-45
2021/08/18 05:58:17;;;;;;;6.72;4.18;;;21.50;58.40;;;;;;5006845;28;20085;-45
2021/08/18 06:00:43;;;;;;;4.90;3.72;;;21.60;58.70;;;;;;4993202;28;20042;-45
2021/08/18 06:03:09;;;;;;;5.63;3.72;;;21.60;58.70;;;;;;4992903;28;20033;-51
2021/08/18 06:05:38;;;;;;;6.88;3.45;;;21.60;58.80;;;;;;4993051;28;20034;-45
2021/08/18 06:08:05;;;;;;;5.72;3.47;;;21.60;59.10;;;;;;4993381;28;20049;-45
2021/08/18 06:10:32;;;;;;;6.05;3.33;;;21.60;58.90;;;;;;5006859;28;20041;-45
2021/08/18 06:12:57;;;;;;;4.88;3.13;;;21.60;58.90;;;;;;5012838;28;20026;-46
2021/08/18 06:15:23;;;;;;;4.50;3.00;;;21.60;58.90;;;;;;5012141;28;20371;-45
2021/08/18 06:17:49;;;;;;;4.82;2.97;;;21.60;58.90;;;;;;5011877;28;20017;-45
2021/08/18 06:20:18;;;;;;;5.38;3.83;;;21.60;58.40;;;;;;5011952;28;20034;-46
2021/08/18 06:22:47;;;;;;;4.97;3.08;;;21.70;58.80;;;;;;5012042;28;20029;-45
2021/08/18 06:25:13;;;;;;;7.80;3.05;;;21.70;58.60;;;;;;5011501;28;20033;-45
2021/08/18 06:27:39;;;;;;;4.78;3.15;;;21.70;58.80;;;;;;5012235;28;20032;-47
2021/08/18 06:30:06;;;;;;;3.45;2.45;;;21.80;58.50;;;;;;5011732;28;20033;-45
2021/08/18 06:32:32;;;;;;;4.28;2.97;;;21.70;58.60;;;;;;5011815;28;20030;-47
2021/08/18 06:34:58;;;;;;;8.25;3.30;;;21.60;58.60;;;;;;5012331;28;20052;-45
2021/08/18 06:37:24;;;;;;;4.47;3.20;;;21.50;59.10;;;;;;5011701;28;20029;-47
2021/08/18 06:39:50;;;;;;;4.75;3.08;;;21.60;58.70;;;;;;5012261;28;20067;-46
2021/08/18 06:42:16;;;;;;;4.75;3.05;;;21.40;59.00;;;;;;5011785;28;20050;-45
2021/08/18 06:44:42;;;;;;;4.55;2.72;;;21.40;58.90;;;;;;5012208;28;20059;-53
2021/08/18 06:47:08;;;;;;;5.43;3.55;;;21.90;58.00;;;;;;5012248;28;20034;-50
2021/08/18 06:49:34;;;;;;;9.90;3.28;;;22.60;56.00;;;;;;5011816;28;20121;-51
2021/08/18 06:52:00;;;;;;;6.65;3.00;;;23.10;55.10;;;;;;5012368;28;20030;-52
2021/08/18 06:54:26;;;;;;;4.88;2.90;;;23.30;55.30;;;;;;5011664;28;20029;-49
2021/08/18 06:56:52;;;;;;;8.80;3.33;;;23.40;54.50;;;;;;5012112;28;20499;-52
2021/08/18 06:59:17;;;;;;;6.28;3.40;;;23.50;54.60;;;;;;5011169;28;20026;-52
2021/08/18 07:01:44;;;;;;;6.55;3.40;;;23.50;54.80;;;;;;5011604;28;20033;-54
2021/08/18 07:04:10;;;;;;;6.38;3.58;;;23.50;54.60;;;;;;5011953;28;20036;-57
2021/08/18 07:06:35;;;;;;;4.97;3.42;;;23.50;55.90;;;;;;5011629;28;20108;-54
2021/08/18 07:09:01;;;;;;;4.70;3.50;;;22.50;58.20;;;;;;5009125;28;20069;-52
2021/08/18 07:11:27;;;;;;;4.80;3.25;;;22.00;59.20;;;;;;4991395;28;20045;-49
2021/08/18 07:13:58;;;;;;;7.03;3.75;;;21.70;59.90;;;;;;4992311;28;20106;-53
2021/08/18 07:16:28;;;;;;;5.30;3.30;;;21.50;60.60;;;;;;4991855;28;20383;-51
2021/08/18 07:18:55;;;;;;;6.57;3.80;;;21.40;60.60;;;;;;4992206;28;20034;-51
2021/08/18 07:21:21;;;;;;;4.82;3.58;;;21.30;61.50;;;;;;4991758;28;20041;-53
2021/08/18 07:23:48;;;;;;;5.43;3.40;;;21.30;61.30;;;;;;4992284;28;20035;-51
2021/08/18 07:26:13;;;;;;;4.95;3.30;;;21.10;61.10;;;;;;4991966;28;20431;-60
2021/08/18 07:28:39;;;;;;;4.75;3.53;;;21.10;61.20;;;;;;5000145;28;20047;-55
2021/08/18 07:31:05;;;;;;;4.20;2.90;;;21.10;61.20;;;;;;5011843;28;20475;-53
2021/08/18 07:33:30;;;;;;;6.68;3.50;;;21.20;60.80;;;;;;5011211;28;20083;-54
2021/08/18 07:35:56;;;;;;;4.82;2.90;;;21.20;60.60;;;;;;5011479;28;20034;-53
2021/08/18 07:38:22;;;;;;;5.05;2.60;;;21.20;60.50;;;;;;5011275;28;20040;-52
2021/08/18 07:40:47;;;;;;;5.03;3.22;;;21.20;60.60;;;;;;5011687;28;20054;-54
2021/08/18 07:43:13;;;;;;;4.07;2.83;;;21.40;60.40;;;;;;5010082;28;20029;-60
2021/08/18 07:45:39;;;;;;;4.60;3.25;;;21.40;60.30;;;;;;5012096;28;20076;-53
2021/08/18 07:48:05;;;;;;;4.80;2.78;;;21.40;61.60;;;;;;5011311;28;20030;-54
2021/08/18 07:50:31;;;;;;;4.85;2.47;;;21.30;60.60;;;;;;5010996;28;20057;-53
2021/08/18 07:52:57;;;;;;;4.28;2.05;;;21.30;60.30;;;;;;5011707;28;20468;-53
2021/08/18 07:55:22;;;;;;;4.20;1.90;;;21.50;60.80;;;;;;5010727;28;20459;-55
2021/08/18 07:57:48;;;;;;;2.40;2.17;;;21.60;60.60;;;;;;5011263;28;20058;-52
2021/08/18 08:00:14;;;;;;;2.65;1.67;;;21.50;59.90;;;;;;5011166;28;20037;-58
2021/08/18 08:02:44;;;;;;;4.15;1.83;;;21.50;60.10;;;;;;5011091;28;20034;-54
2021/08/18 08:05:11;;;;;;;3.60;1.80;;;21.60;59.50;;;;;;5010303;28;20052;-53
2021/08/18 08:07:36;;;;;;;2.85;2.00;;;21.40;59.70;;;;;;5010804;28;20026;-54
2021/08/18 08:10:05;;;;;;;3.30;1.90;;;21.60;59.80;;;;;;5000711;28;20422;-52
2021/08/18 08:12:31;;;;;;;2.53;1.60;;;21.60;59.60;;;;;;4992657;28;20034;-53
2021/08/18 08:14:56;;;;;;;1.95;1.50;;;21.70;59.30;;;;;;4995289;28;20037;-53
2021/08/18 08:17:22;;;;;;;1.98;1.27;;;21.60;60.00;;;;;;4995108;28;20080;-51
2021/08/18 08:19:48;;;;;;;2.95;1.65;;;21.50;59.80;;;;;;4995302;28;20488;-51
2021/08/18 08:22:13;;;;;;;2.85;1.25;;;21.50;59.70;;;;;;4994940;28;20093;-57
2021/08/18 08:24:39;;;;;;;1.88;1.15;;;21.40;60.10;;;;;;4994781;28;20432;-52
2021/08/18 08:27:05;;;;;;;1.85;1.40;;;21.30;60.00;;;;;;4995241;28;20373;-54
2021/08/18 08:29:30;;;;;;;1.30;1.00;;;21.40;59.90;;;;;;5009124;28;20026;-53
2021/08/18 08:31:56;;;;;;;1.52;0.90;;;21.50;59.80;;;;;;5014581;28;20468;-53
2021/08/18 08:34:22;;;;;;;1.30;0.93;;;21.40;59.30;;;;;;5013809;28;20033;-52
2021/08/18 08:36:48;;;;;;;1.58;0.95;;;21.60;59.20;;;;;;5014499;28;20034;-52
2021/08/18 08:39:14;;;;;;;1.45;0.90;;;21.60;59.40;;;;;;5014739;28;20029;-59
2021/08/18 08:41:43;;;;;;;1.00;0.80;;;21.60;59.20;;;;;;5014117;28;20084;-51
2021/08/18 08:44:17;;;;;;;2.35;1.02;;;21.60;59.60;;;;;;5012886;28;20037;-52
2021/08/18 08:46:46;;;;;;;0.70;0.50;;;21.50;59.50;;;;;;5013471;28;20452;-54
2021/08/18 08:49:13;;;;;;;1.38;0.70;;;21.40;59.90;;;;;;5014465;28;20037;-50
2021/08/18 08:51:39;;;;;;;3.17;0.60;;;21.30;59.90;;;;;;5013440;28;20452;-51
2021/08/18 08:54:05;;;;;;;1.02;0.63;;;21.40;59.90;;;;;;5014536;28;20041;-51
2021/08/18 08:56:30;;;;;;;0.73;0.63;;;21.40;60.40;;;;;;5013840;28;20109;-51
2021/08/18 08:58:56;;;;;;;0.45;0.45;;;21.40;60.10;;;;;;5014080;28;20028;-54
2021/08/18 09:01:21;;;;;;;0.73;0.55;;;21.40;60.30;;;;;;5013409;28;20514;-55
2021/08/18 09:03:47;;;;;;;1.92;0.73;;;21.50;60.10;;;;;;5014123;28;20364;-54
2021/08/18 09:06:20;;;;;;;1.25;0.80;;;21.50;60.50;;;;;;5013875;28;20028;-54
2021/08/18 09:08:51;;;;;;;1.15;0.65;;;21.50;60.10;;;;;;5013652;28;20041;-54
2021/08/18 09:11:19;;;;;;;1.30;0.80;;;21.60;61.00;;;;;;4994342;28;20030;-61
2021/08/18 09:13:48;;;;;;;1.92;0.65;;;21.50;60.50;;;;;;4994361;28;20178;-57
2021/08/18 09:16:15;;;;;;;0.70;0.55;;;21.50;60.50;;;;;;4994304;28;20369;-55
2021/08/18 09:18:45;;;;;;;1.58;0.50;;;21.50;59.60;;;;;;4994451;28;20483;-54
2021/08/18 09:21:26;;;;;;;1.15;0.60;;;21.50;60.20;;;;;;4993002;28;20026;-52
2021/08/18 09:24:12;;;;;;;0.40;0.40;;;21.50;60.30;;;;;;4993764;28;20030;-57
2021/08/18 09:26:51;;;;;;;0.70;0.60;;;21.40;60.10;;;;;;4993452;28;20022;-53
2021/08/18 09:29:35;;;;;;;1.08;0.50;;;21.40;60.70;;;;;;5006718;28;20026;-60
2021/08/18 09:32:24;;;;;;;1.48;0.57;;;21.30;60.90;;;;;;5013630;28;20057;-56
2021/08/18 09:34:56;;;;;;;1.40;0.75;;;21.40;60.90;;;;;;5013520;28;20034;-54
2021/08/18 09:37:23;;;;;;;0.75;0.60;;;21.40;61.00;;;;;;5012836;28;20034;-55
2021/08/18 09:39:49;;;;;;;0.82;0.50;;;21.30;61.50;;;;;;5013068;28;20034;-51
2021/08/18 09:42:34;;;;;;;1.55;0.60;;;21.30;61.20;;;;;;5013559;28;20056;-53
2021/08/18 09:45:24;;;;;;;1.67;0.70;;;21.30;61.20;;;;;;5013325;28;20044;-52
2021/08/18 09:48:08;;;;;;;1.85;0.45;;;21.20;61.30;;;;;;5013362;28;20026;-53
2021/08/18 09:50:58;;;;;;;0.68;0.50;;;21.30;61.30;;;;;;5012357;28;20084;-57
2021/08/18 09:53:26;;;;;;;2.58;0.70;;;21.40;61.50;;;;;;5012376;28;20121;-55
2021/08/18 09:55:53;;;;;;;2.63;0.70;;;21.50;60.90;;;;;;5012847;28;20423;-57
2021/08/18 09:58:33;;;;;;;4.05;0.55;;;21.70;60.70;;;;;;5012588;28;20024;-58
2021/08/18 10:01:05;;;;;;;1.15;0.60;;;22.40;59.00;;;;;;5012706;28;20116;-52
2021/08/18 10:03:31;;;;;;;;;;;22.70;58.00;;;;;;5012746;28;20033;-56
2021/08/18 10:05:58;;;;;;;3.28;0.50;;;22.60;57.80;;;;;;5013147;28;19912;-56
2021/08/18 10:08:24;;;;;;;4.32;0.40;;;22.70;57.90;;;;;;5012074;28;20080;-57
2021/08/18 10:10:51;;;;;;;2.60;0.40;;;22.70;57.30;;;;;;4995557;28;20066;-55
2021/08/18 10:13:18;;;;;;;1.20;1.02;;;22.60;57.60;;;;;;4993083;28;20058;-58
2021/08/18 10:15:44;;;;;;;0.40;0.30;;;22.50;57.60;;;;;;4992281;28;20062;-57
2021/08/18 10:18:11;;;;;;;1.52;0.40;;;22.30;57.70;;;;;;4993322;28;20027;-56
2021/08/18 10:20:38;;;;;;;2.63;0.57;;;22.40;57.50;;;;;;4991878;28;20117;-56
2021/08/18 10:23:13;;;;;;;3.00;0.57;;;22.60;57.50;;;;;;4993138;28;20033;-59
2021/08/18 10:25:46;;;;;;;1.85;0.57;;;23.20;56.10;;;;;;4992336;28;20201;-58
2021/08/18 10:28:16;;;;;;;1.50;0.60;;;23.60;55.60;;;;;;4997041;28;20391;-56
2021/08/18 10:31:08;;;;;;;2.13;0.60;;;23.80;55.20;;;;;;5011785;28;20090;-57
2021/08/18 10:33:54;;;;;;;2.80;0.52;;;23.90;55.50;;;;;;5011600;28;20046;-56
2021/08/18 10:36:42;;;;;;;0.50;0.47;;;24.00;55.60;;;;;;5011589;28;20041;-60
2021/08/18 10:39:22;;;;;;;0.85;0.43;;;24.10;55.30;;;;;;5012433;28;20419;-57
2021/08/18 10:42:13;;;;;;;1.27;0.40;;;24.10;55.60;;;;;;5012485;28;20042;-56
2021/08/18 10:44:40;;;;;;;4.85;0.93;;;24.10;55.70;;;;;;5011797;28;20483;-59
2021/08/18 10:47:26;;;;;;;1.42;0.50;;;24.10;55.70;;;;;;5012785;28;20033;-59
2021/08/18 10:50:11;;;;;;;0.80;0.28;;;24.20;56.00;;;;;;5012388;28;20597;-60
2021/08/18 10:52:37;;;;;;;2.58;0.30;;;24.20;55.80;;;;;;5011443;28;20032;-60
2021/08/18 10:55:08;;;;;;;0.90;0.60;;;24.30;56.50;;;;;;5011934;28;20038;-59
2021/08/18 10:57:38;;;;;;;1.17;0.50;;;24.30;55.70;;;;;;5011332;28;20472;-60
2021/08/18 11:00:08;;;;;;;0.93;0.50;;;24.30;55.70;;;;;;5011631;28;20036;-60
2021/08/18 11:02:52;;;;;;;1.48;0.60;;;24.30;55.60;;;;;;5011146;28;20499;-59
2021/08/18 11:05:29;;;;;;;2.70;0.50;;;24.40;55.50;;;;;;5011914;28;20030;-56
2021/08/18 11:08:05;;;;;;;1.08;0.47;;;24.40;56.10;;;;;;5012075;28;20030;-60
2021/08/18 11:10:34;;;;;;;0.95;0.73;;;24.40;55.50;;;;;;4996286;28;20045;-59
2021/08/18 11:13:01;;;;;;;1.10;0.50;;;24.40;55.60;;;;;;4992538;28;20471;-58
2021/08/18 11:15:27;;;;;;;2.08;0.50;;;24.40;55.40;;;;;;4991523;28;20026;-58
2021/08/18 11:17:55;;;;;;;0.80;0.70;;;24.50;55.20;;;;;;4992526;28;20031;-57
2021/08/18 11:20:24;;;;;;;2.55;0.68;;;24.50;55.00;;;;;;4992171;28;20456;-61
2021/08/18 11:22:57;;;;;;;0.80;0.35;;;24.50;55.20;;;;;;4992333;28;20030;-58
2021/08/18 11:25:23;;;;;;;0.65;0.30;;;24.50;55.20;;;;;;4991650;28;20049;-60
2021/08/18 11:27:50;;;;;;;1.27;0.40;;;24.50;55.20;;;;;;4992960;28;20026;-58
2021/08/18 11:30:16;;;;;;;1.40;0.40;;;24.50;55.20;;;;;;5012104;28;20053;-59
2021/08/18 11:32:42;;;;;;;1.75;0.40;;;24.50;55.30;;;;;;5010881;28;20025;-58
2021/08/18 11:35:09;;;;;;;0.75;0.40;;;24.50;55.10;;;;;;5011615;28;20028;-58
2021/08/18 11:37:34;;;;;;;2.75;0.60;;;24.40;55.30;;;;;;5010690;28;20033;-53
2021/08/18 11:40:02;;;;;;;3.13;0.45;;;24.50;55.70;;;;;;5011428;28;20096;-49
2021/08/18 11:42:28;;;;;;;1.25;0.60;;;24.60;55.20;;;;;;5011134;28;20034;-57
2021/08/18 11:44:59;;;;;;;1.70;0.40;;;24.60;55.10;;;;;;5011997;28;20391;-57
2021/08/18 11:47:29;;;;;;;2.00;0.55;;;24.60;55.00;;;;;;5012515;28;20037;-54
2021/08/18 11:49:55;;;;;;;1.67;0.52;;;24.60;55.00;;;;;;5015582;28;20117;-52
2021/08/18 11:52:22;;;;;;;0.52;0.30;;;24.60;54.90;;;;;;5015455;28;20054;-51
2021/08/18 11:55:16;;;;;;;2.38;0.50;;;24.70;55.00;;;;;;5014645;28;20502;-49
2021/08/18 11:57:41;;;;;;;1.00;0.40;;;24.70;55.00;;;;;;5014118;28;20821;-47
2021/08/18 12:00:08;;;;;;;0.80;0.60;;;24.70;55.00;;;;;;5015241;28;20026;-48
2021/08/18 12:02:35;;;;;;;3.10;0.57;;;24.80;55.00;;;;;;5014624;28;20037;-50
2021/08/18 12:05:02;;;;;;;8.10;1.17;;;24.80;54.70;;;;;;5015372;28;20085;-59
2021/08/18 12:07:30;;;;;;;4.72;0.70;;;24.80;55.30;;;;;;5014488;28;20435;-55
2021/08/18 12:10:13;;;;;;;3.45;0.70;;;24.80;55.00;;;;;;5004747;28;20080;-58
2021/08/18 12:12:39;;;;;;;2.55;0.55;;;24.80;55.10;;;;;;4994439;28;20539;-53
2021/08/18 12:15:11;;;;;;;1.42;0.60;;;24.80;55.00;;;;;;4995553;28;20027;-53
2021/08/18 12:17:41;;;;;;;1.45;0.50;;;24.90;54.90;;;;;;4994475;28;20041;-55
2021/08/18 12:20:30;;;;;;;3.10;0.57;;;24.90;54.90;;;;;;4995168;28;20066;-50
2021/08/18 12:23:00;;;;;;;2.15;0.50;;;24.80;54.90;;;;;;4995314;28;20023;-57
2021/08/18 12:25:43;;;;;;;3.97;0.70;;;24.90;54.90;;;;;;4994263;28;20026;-55
2021/08/18 12:28:20;;;;;;;11.57;1.33;;;24.90;54.90;;;;;;4998807;28;20030;-58
2021/08/18 12:30:59;;;;;;;2.53;0.77;;;24.90;54.80;;;;;;5014201;28;20034;-57
2021/08/18 12:33:26;;;;;;;2.25;1.33;;;24.90;55.00;;;;;;5014129;28;20053;-55
2021/08/18 12:36:04;;;;;;;1.75;0.70;;;24.90;55.10;;;;;;5014478;28;20092;-56
2021/08/18 12:38:30;;;;;;;2.22;0.60;;;24.90;55.00;;;;;;5011179;28;20022;-56
2021/08/18 12:41:05;;;;;;;1.15;0.55;;;24.90;55.00;;;;;;4993655;28;20116;-52
2021/08/18 12:43:30;;;;;;;1.83;0.55;;;24.90;54.80;;;;;;4993673;28;20042;-54
2021/08/18 12:45:56;;;;;;;2.83;0.70;;;24.90;54.80;;;;;;4994283;28;20026;-49
2021/08/18 12:48:25;;;;;;;1.00;0.65;;;24.90;54.80;;;;;;4994275;28;20109;-53